Captain Ed — WDF6338 — position and weather

sailwx.info

Track history (hours):
 
Tides and Currents Weather Stations Pressure Air Temp Water Temp Dewpoint Dewpoint Depression Visibility Wind Speed Wind Dir Waves Ship Positions

Captain Ed

Owner: Norfolk Dredging Company, Chesapeake, VA. More information available from US FCC via Universal Licensing System and Coast Guard Vessel Documentation Center.

Last reported at 2016-Jul-13 23:33 UTC. Time now 2016-Jul-27 11:38 UTC.
Position N 36°44' W 076°16'.
Warning: this ship's position is 13 days out of date.

Length 22 m; draft 3 m.

Type: Tug. MMSI: 367473210.

Date/timePositionNaut miles runAvg speedWind from/ knotsBaromVisibWave heightAir tempDewpointWater temp
2016-Jul-13 23:33N 36°44' W 076°16'3 3.4
2016-Jul-13 22:33N 36°47' W 076°18'2 2.2
2016-Jul-13 21:33N 36°49' W 076°17'4 4.1
2016-Jul-13 20:31N 36°52' W 076°20'0 0.0
2016-Jul-13 19:33N 36°52' W 076°20'0 0.1
2016-Jul-13 18:33N 36°52' W 076°20'3 2.8
2016-Jul-13 17:33N 36°51' W 076°18'3 3.1
2016-Jul-13 16:33N 36°48' W 076°18'2 1.6
2016-Jul-13 15:33N 36°46' W 076°18'0 0.1
2016-Jul-13 14:33N 36°46' W 076°18'2 2.0
2016-Jul-13 13:22N 36°44' W 076°17'2 1.8
2016-Jul-13 12:27N 36°43' W 076°15'0 0.0
2016-Jul-12 20:05N 36°43' W 076°14'2 4.6
2016-Jul-12 19:33N 36°44' W 076°17'5 4.8
2016-Jul-12 18:33N 36°49' W 076°17'4 4.4
2016-Jul-12 17:33N 36°52' W 076°21'0 0.1
2016-Jul-12 16:33N 36°52' W 076°20'0 0.1
2016-Jul-12 15:33N 36°52' W 076°21'0 0.0
2016-Jul-12 14:33N 36°52' W 076°21'4 3.9
2016-Jul-12 13:33N 36°49' W 076°17'3 3.0
2016-Jul-12 12:33N 36°46' W 076°18'3 2.7
2016-Jul-12 11:33N 36°44' W 076°16'2 0.1
2016-Jul-11 20:08N 36°43' W 076°14'2 3.9
2016-Jul-11 19:33N 36°44' W 076°17'3 2.9
2016-Jul-11 18:33N 36°47' W 076°18'1 1.1
2016-Jul-11 17:33N 36°48' W 076°18'0 0.0
2016-Jul-11 16:33N 36°48' W 076°18'0 0.0
2016-Jul-11 15:33N 36°48' W 076°18'0 0.0
2016-Jul-11 14:33N 36°48' W 076°18'0 0.0
2016-Jul-11 13:33N 36°48' W 076°18'0 0.0
2016-Jul-11 12:33N 36°48' W 076°18'0 0.5
2016-Jul-11 11:33N 36°48' W 076°18'4 4.0
2016-Jul-11 10:33N 36°52' W 076°19'1 1.5
2016-Jul-11 09:33N 36°52' W 076°20'0 0.0
2016-Jul-11 08:33N 36°52' W 076°20'0 0.0
2016-Jul-11 07:33N 36°52' W 076°20'0 0.0
2016-Jul-11 06:31N 36°52' W 076°20'0 0.0
2016-Jul-11 04:33N 36°52' W 076°20'0 0.0
2016-Jul-11 03:34N 36°52' W 076°20'0 0.0
2016-Jul-11 02:33N 36°52' W 076°20'0 0.0
2016-Jul-11 01:33N 36°52' W 076°20'0 0.0
2016-Jul-11 00:33N 36°52' W 076°20'0 0.0
2016-Jul-10 23:33N 36°52' W 076°20'0 0.0
2016-Jul-10 22:33N 36°52' W 076°20'0 0.0
2016-Jul-10 21:33N 36°52' W 076°20'0 0.0
2016-Jul-10 20:33N 36°52' W 076°20'4 3.9
2016-Jul-10 19:33N 36°49' W 076°17'3 3.0
2016-Jul-10 18:33N 36°46' W 076°18'2 1.3
2016-Jul-10 17:13N 36°45' W 076°18'0 0.3
2016-Jul-10 15:33N 36°44' W 076°18'3 0.1
2016-Jul-08 20:07N 36°43' W 076°14'2 3.2
2016-Jul-08 19:33N 36°44' W 076°16'3 3.1
2016-Jul-08 18:33N 36°47' W 076°18'3 2.9
2016-Jul-08 17:33N 36°49' W 076°17'4 3.7
2016-Jul-08 16:33N 36°52' W 076°20'0 0.0
2016-Jul-08 15:33N 36°52' W 076°20'0 0.0
2016-Jul-08 14:32N 36°52' W 076°20'3 3.3
2016-Jul-08 13:33N 36°50' W 076°18'4 3.7
2016-Jul-08 12:33N 36°46' W 076°18'3 3.1
2016-Jul-08 11:33N 36°44' W 076°16'  
Track history (hours):
 
Tides and Currents Weather Stations Pressure Air Temp Water Temp Dewpoint Dewpoint Depression Visibility Wind Speed Wind Dir Waves Ship Positions

Captain Ed

Owner: Norfolk Dredging Company, Chesapeake, VA. More information available from US FCC via Universal Licensing System and Coast Guard Vessel Documentation Center.

Last reported at 2016-Jul-13 23:33 UTC. Time now 2016-Jul-27 11:38 UTC.
Position N 36°44' W 076°16'.
Warning: this ship's position is 13 days out of date.

Length 22 m; draft 3 m.

Type: Tug. MMSI: 367473210.

Date/timePositionNaut miles runAvg speedWind from/ knotsBaromVisibWave heightAir tempDewpointWater temp
2016-Jul-13 23:33N 36°44' W 076°16'3 3.4
2016-Jul-13 22:33N 36°47' W 076°18'2 2.2
2016-Jul-13 21:33N 36°49' W 076°17'4 4.1
2016-Jul-13 20:31N 36°52' W 076°20'0 0.0
2016-Jul-13 19:33N 36°52' W 076°20'0 0.1
2016-Jul-13 18:33N 36°52' W 076°20'3 2.8
2016-Jul-13 17:33N 36°51' W 076°18'3 3.1
2016-Jul-13 16:33N 36°48' W 076°18'2 1.6
2016-Jul-13 15:33N 36°46' W 076°18'0 0.1
2016-Jul-13 14:33N 36°46' W 076°18'2 2.0
2016-Jul-13 13:22N 36°44' W 076°17'2 1.8
2016-Jul-13 12:27N 36°43' W 076°15'0 0.0
2016-Jul-12 20:05N 36°43' W 076°14'2 4.6
2016-Jul-12 19:33N 36°44' W 076°17'5 4.8
2016-Jul-12 18:33N 36°49' W 076°17'4 4.4
2016-Jul-12 17:33N 36°52' W 076°21'0 0.1
2016-Jul-12 16:33N 36°52' W 076°20'0 0.1
2016-Jul-12 15:33N 36°52' W 076°21'0 0.0
2016-Jul-12 14:33N 36°52' W 076°21'4 3.9
2016-Jul-12 13:33N 36°49' W 076°17'3 3.0
2016-Jul-12 12:33N 36°46' W 076°18'3 2.7
2016-Jul-12 11:33N 36°44' W 076°16'2 0.1
2016-Jul-11 20:08N 36°43' W 076°14'2 3.9
2016-Jul-11 19:33N 36°44' W 076°17'3 2.9
2016-Jul-11 18:33N 36°47' W 076°18'1 1.1
2016-Jul-11 17:33N 36°48' W 076°18'0 0.0
2016-Jul-11 16:33N 36°48' W 076°18'0 0.0
2016-Jul-11 15:33N 36°48' W 076°18'0 0.0
2016-Jul-11 14:33N 36°48' W 076°18'0 0.0
2016-Jul-11 13:33N 36°48' W 076°18'0 0.0
2016-Jul-11 12:33N 36°48' W 076°18'0 0.5
2016-Jul-11 11:33N 36°48' W 076°18'4 4.0
2016-Jul-11 10:33N 36°52' W 076°19'1 1.5
2016-Jul-11 09:33N 36°52' W 076°20'0 0.0
2016-Jul-11 08:33N 36°52' W 076°20'0 0.0
2016-Jul-11 07:33N 36°52' W 076°20'0 0.0
2016-Jul-11 06:31N 36°52' W 076°20'0 0.0
2016-Jul-11 04:33N 36°52' W 076°20'0 0.0
2016-Jul-11 03:34N 36°52' W 076°20'0 0.0
2016-Jul-11 02:33N 36°52' W 076°20'0 0.0
2016-Jul-11 01:33N 36°52' W 076°20'0 0.0
2016-Jul-11 00:33N 36°52' W 076°20'0 0.0
2016-Jul-10 23:33N 36°52' W 076°20'0 0.0
2016-Jul-10 22:33N 36°52' W 076°20'0 0.0
2016-Jul-10 21:33N 36°52' W 076°20'0 0.0
2016-Jul-10 20:33N 36°52' W 076°20'4 3.9
2016-Jul-10 19:33N 36°49' W 076°17'3 3.0
2016-Jul-10 18:33N 36°46' W 076°18'2 1.3
2016-Jul-10 17:13N 36°45' W 076°18'0 0.3
2016-Jul-10 15:33N 36°44' W 076°18'3 0.1
2016-Jul-08 20:07N 36°43' W 076°14'2 3.2
2016-Jul-08 19:33N 36°44' W 076°16'3 3.1
2016-Jul-08 18:33N 36°47' W 076°18'3 2.9
2016-Jul-08 17:33N 36°49' W 076°17'4 3.7
2016-Jul-08 16:33N 36°52' W 076°20'0 0.0
2016-Jul-08 15:33N 36°52' W 076°20'0 0.0
2016-Jul-08 14:32N 36°52' W 076°20'3 3.3
2016-Jul-08 13:33N 36°50' W 076°18'4 3.7
2016-Jul-08 12:33N 36°46' W 076°18'3 3.1
2016-Jul-08 11:33N 36°44' W 076°16'  

Dump ship's entire track history